Alma, Wisconsin
Current Conditions -  °F | °C
As of 10:54 AM on Friday 28 Nov 2014 (Local Time) from KONA Reporting Station
Clear Clear  
Wind Chill: 17°   Ceiling: Unl
Heat Index: 25°   Visibility: 10mi
Dew Point: 14°   Wind: 7mph
Humidity: 64%   Direction: 150°SSE
Pressure: 30.01"   Gusts: NA
Location:  44.32°N, 91.91°W
Report Text: KONA 281654Z AUTO 15006KT 10SM CLR M04/M10 A3001 RMK AO2
Loading
Personal Weather Stations






























Interactive Weather Map New forecast layout! Learn more

10-Day Weather Forecast

Advertisements
Track Severe Weather on mobile